createdAt,value
2016-07-09T00:00:20.217Z,0
2016-07-09T00:01:19.611Z,0
2016-07-09T00:02:19.614Z,0
2016-07-09T00:03:19.607Z,0
2016-07-09T00:04:19.602Z,0
2016-07-09T00:05:19.602Z,0
2016-07-09T00:06:19.595Z,0
2016-07-09T00:07:19.604Z,0
2016-07-09T00:08:19.595Z,0
2016-07-09T00:09:19.595Z,0
2016-07-09T00:10:19.597Z,0
2016-07-09T00:11:19.594Z,0
2016-07-09T00:12:19.585Z,0
2016-07-09T00:13:19.579Z,0
2016-07-09T00:14:20.108Z,0
2016-07-09T00:15:20.753Z,0
2016-07-09T00:16:21.052Z,0
2016-07-09T00:17:19.904Z,0
2016-07-09T00:18:20.509Z,0
2016-07-09T00:19:20.118Z,0
2016-07-09T00:20:19.571Z,0
2016-07-09T00:21:19.565Z,0
2016-07-09T00:22:19.559Z,0
2016-07-09T00:23:22.184Z,0
2016-07-09T00:25:21.134Z,0
2016-07-09T00:26:20.623Z,0
2016-07-09T00:27:19.699Z,0
2016-07-09T00:28:19.812Z,0
2016-07-09T00:29:19.553Z,0
2016-07-09T00:30:19.557Z,0
2016-07-09T00:31:19.555Z,0
2016-07-09T00:32:19.547Z,0
2016-07-09T00:33:19.544Z,0
2016-07-09T00:34:19.541Z,0
2016-07-09T00:35:19.531Z,0
2016-07-09T00:36:19.537Z,0
2016-07-09T00:37:19.538Z,0
2016-07-09T00:38:19.537Z,0
2016-07-09T00:39:19.537Z,0
2016-07-09T00:40:19.529Z,0
2016-07-09T00:41:19.527Z,0
2016-07-09T00:42:19.520Z,0
2016-07-09T00:43:19.531Z,0
2016-07-09T00:44:20.132Z,0
2016-07-09T00:45:19.523Z,0
2016-07-09T00:46:20.869Z,0
2016-07-09T00:47:19.971Z,0
2016-07-09T00:48:20.274Z,0
2016-07-09T00:49:19.524Z,0
2016-07-09T00:50:19.506Z,0
2016-07-09T00:51:19.510Z,0
2016-07-09T00:52:19.910Z,0
2016-07-09T00:53:19.509Z,0
2016-07-09T00:54:19.500Z,0
2016-07-09T00:55:22.520Z,0
2016-07-09T00:57:34.851Z,0
2016-07-09T00:59:19.486Z,0
2016-07-09T01:00:19.492Z,0
2016-07-09T01:01:19.494Z,0
2016-07-09T01:02:20.997Z,0
2016-07-09T01:03:19.484Z,0
2016-07-09T01:04:19.479Z,0
2016-07-09T01:05:19.475Z,0
2016-07-09T01:06:19.473Z,0
2016-07-09T01:07:19.471Z,0
2016-07-09T01:08:19.474Z,0
2016-07-09T01:09:19.462Z,0
2016-07-09T01:10:19.459Z,0
2016-07-09T01:11:19.462Z,0
2016-07-09T01:12:20.061Z,0
2016-07-09T01:13:19.459Z,0
2016-07-09T01:14:19.460Z,0
2016-07-09T01:15:19.453Z,0
2016-07-09T01:16:19.442Z,0
2016-07-09T01:17:19.451Z,0
2016-07-09T01:18:19.438Z,0
2016-07-09T01:19:19.442Z,0
2016-07-09T01:20:19.438Z,0
2016-07-09T01:21:19.443Z,0
2016-07-09T01:22:19.430Z,0
2016-07-09T01:23:19.427Z,0
2016-07-09T01:24:19.434Z,0
2016-07-09T01:25:19.427Z,0
2016-07-09T01:26:19.422Z,0
2016-07-09T01:27:19.422Z,0
2016-07-09T01:28:19.420Z,0
2016-07-09T01:29:19.513Z,0
2016-07-09T01:30:19.418Z,0
2016-07-09T01:31:19.418Z,0
2016-07-09T01:32:21.925Z,0
2016-07-09T01:34:21.108Z,0
2016-07-09T01:35:20.684Z,0
2016-07-09T01:36:19.407Z,0
2016-07-09T01:37:20.247Z,0
2016-07-09T01:38:20.179Z,0
2016-07-09T01:39:19.431Z,0
2016-07-09T01:40:19.392Z,0
2016-07-09T01:41:19.878Z,0
2016-07-09T01:42:22.175Z,0
2016-07-09T01:43:20.788Z,0
2016-07-09T01:44:21.115Z,0
2016-07-09T01:45:20.976Z,0
2016-07-09T01:46:19.714Z,0
2016-07-09T01:47:20.100Z,0
2016-07-09T01:48:19.824Z,0
2016-07-09T01:49:19.370Z,0
2016-07-09T01:50:19.376Z,0
2016-07-09T01:51:19.380Z,0
2016-07-09T01:52:19.364Z,0
2016-07-09T01:53:19.366Z,0
2016-07-09T01:54:19.359Z,0
2016-07-09T01:55:19.355Z,0
2016-07-09T01:56:19.358Z,0
2016-07-09T01:57:19.366Z,0
2016-07-09T01:58:19.349Z,0
2016-07-09T01:59:19.353Z,0
2016-07-09T02:00:19.359Z,0
2016-07-09T02:01:19.347Z,0
2016-07-09T02:02:19.339Z,0
2016-07-09T02:03:19.347Z,0
2016-07-09T02:04:20.092Z,0
2016-07-09T02:05:20.392Z,0
2016-07-09T02:06:19.638Z,0
2016-07-09T02:07:20.130Z,0
2016-07-09T02:08:19.331Z,0
2016-07-09T02:09:19.433Z,0
2016-07-09T02:10:19.329Z,0
2016-07-09T02:11:19.322Z,0
2016-07-09T02:12:19.332Z,0
2016-07-09T02:13:20.126Z,0
2016-07-09T02:14:20.469Z,4
2016-07-09T02:15:19.315Z,4
2016-07-09T02:16:19.312Z,4
2016-07-09T02:17:19.850Z,4
2016-07-09T02:18:19.406Z,4
2016-07-09T02:19:19.606Z,4
2016-07-09T02:20:19.309Z,4
2016-07-09T02:21:19.296Z,4
2016-07-09T02:22:19.297Z,4
2016-07-09T02:23:19.296Z,8
2016-07-09T02:24:19.292Z,8
2016-07-09T02:25:19.295Z,8
2016-07-09T02:26:19.291Z,12
2016-07-09T02:27:19.288Z,16
2016-07-09T02:28:19.300Z,12
2016-07-09T02:29:19.385Z,12
2016-07-09T02:30:19.286Z,12
2016-07-09T02:31:19.270Z,16
2016-07-09T02:32:19.279Z,20
2016-07-09T02:33:19.275Z,28
2016-07-09T02:34:19.268Z,36
2016-07-09T02:35:19.270Z,40
2016-07-09T02:36:19.265Z,40
2016-07-09T02:37:19.283Z,44
2016-07-09T02:38:19.262Z,52
2016-07-09T02:39:19.259Z,64
2016-07-09T02:40:19.261Z,80
2016-07-09T02:41:19.252Z,92
2016-07-09T02:42:19.254Z,100
2016-07-09T02:43:19.263Z,108
2016-07-09T02:44:19.254Z,120
2016-07-09T02:45:19.854Z,120
2016-07-09T02:46:19.242Z,128
2016-07-09T02:47:19.240Z,140
2016-07-09T02:48:19.235Z,160
2016-07-09T02:49:19.241Z,188
2016-07-09T02:50:19.235Z,208
2016-07-09T02:51:20.912Z,208
2016-07-09T02:52:20.205Z,180
2016-07-09T02:53:21.166Z,196
2016-07-09T02:54:19.244Z,220
2016-07-09T02:55:19.230Z,204
2016-07-09T02:56:19.225Z,188
2016-07-09T02:57:19.654Z,204
2016-07-09T02:58:19.346Z,232
2016-07-09T02:59:19.218Z,264
2016-07-09T03:00:21.334Z,304
2016-07-09T03:01:20.760Z,348
2016-07-09T03:02:19.220Z,372
2016-07-09T03:03:20.067Z,400
2016-07-09T03:04:19.915Z,392
2016-07-09T03:05:19.812Z,348
2016-07-09T03:06:20.122Z,396
2016-07-09T03:07:19.194Z,460
2016-07-09T03:08:19.234Z,488
2016-07-09T03:09:19.190Z,512
2016-07-09T03:10:19.194Z,556
2016-07-09T03:11:19.192Z,636
2016-07-09T03:12:19.193Z,660
2016-07-09T03:13:19.190Z,720
2016-07-09T03:14:19.188Z,800
2016-07-09T03:15:19.188Z,884
2016-07-09T03:16:19.176Z,964
2016-07-09T03:17:19.175Z,1040
2016-07-09T03:18:19.178Z,1140
2016-07-09T03:19:19.170Z,1252
2016-07-09T03:20:19.171Z,1360
2016-07-09T03:21:19.172Z,1472
2016-07-09T03:22:19.827Z,1628
2016-07-09T03:23:34.169Z,2048
2016-07-09T03:24:34.218Z,2504
2016-07-09T03:25:21.064Z,2532
2016-07-09T03:26:19.159Z,2404
2016-07-09T03:28:19.156Z,2588
2016-07-09T03:29:19.257Z,2396
2016-07-09T03:30:19.312Z,2348
2016-07-09T03:32:19.193Z,2528
2016-07-09T03:33:19.604Z,2820
2016-07-09T03:34:19.285Z,2992
2016-07-09T03:35:20.040Z,2936
2016-07-09T03:36:19.541Z,2748
2016-07-09T03:37:19.132Z,2552
2016-07-09T03:38:19.135Z,2756
2016-07-09T03:39:19.141Z,2932
2016-07-09T03:40:19.134Z,3804
2016-07-09T03:41:19.127Z,3812
2016-07-09T03:42:19.131Z,3348
2016-07-09T03:43:19.131Z,3444
2016-07-09T03:44:19.115Z,3892
2016-07-09T03:45:19.121Z,5444
2016-07-09T03:46:19.120Z,5552
2016-07-09T03:47:19.124Z,5520
2016-07-09T03:48:19.115Z,4996
2016-07-09T03:49:19.134Z,5228
2016-07-09T03:50:19.117Z,4836
2016-07-09T03:51:19.113Z,3832
2016-07-09T03:52:19.110Z,3092
2016-07-09T03:53:19.113Z,2220
2016-07-09T03:54:19.105Z,1732
2016-07-09T03:55:19.103Z,1816
2016-07-09T03:56:19.102Z,1992
2016-07-09T03:57:19.098Z,1900
2016-07-09T03:58:19.112Z,2728
2016-07-09T03:59:19.103Z,3412
2016-07-09T04:00:19.099Z,3608
2016-07-09T04:01:19.719Z,3088
2016-07-09T04:02:19.103Z,2928
2016-07-09T04:03:19.721Z,3120
2016-07-09T04:04:19.100Z,2452
2016-07-09T04:05:19.095Z,1860
2016-07-09T04:06:19.095Z,1448
2016-07-09T04:07:19.107Z,1008
2016-07-09T04:08:19.096Z,944
2016-07-09T04:09:21.990Z,1308
2016-07-09T04:10:20.560Z,1688
2016-07-09T04:11:19.095Z,2144
2016-07-09T04:12:20.794Z,2288
2016-07-09T04:13:19.104Z,2328
2016-07-09T04:14:19.092Z,2284
2016-07-09T04:15:19.457Z,2060
2016-07-09T04:16:19.091Z,1744
2016-07-09T04:17:19.695Z,1556
2016-07-09T04:19:19.118Z,1604
2016-07-09T04:20:21.831Z,1884
2016-07-09T04:21:20.931Z,2040
2016-07-09T04:22:19.678Z,2044
2016-07-09T04:23:19.503Z,1968
2016-07-09T04:24:19.087Z,1884
2016-07-09T04:25:19.090Z,1724
2016-07-09T04:26:19.088Z,1432
2016-07-09T04:27:19.688Z,1444
2016-07-09T04:28:19.089Z,1712
2016-07-09T04:29:19.081Z,1520
2016-07-09T04:30:19.088Z,1560
2016-07-09T04:31:19.075Z,1556
2016-07-09T04:32:19.077Z,1644
2016-07-09T04:33:19.076Z,2040
2016-07-09T04:34:19.082Z,2156
2016-07-09T04:35:19.067Z,2352
2016-07-09T04:36:19.085Z,3656
2016-07-09T04:37:19.069Z,4192
2016-07-09T04:38:19.067Z,2592
2016-07-09T04:39:19.081Z,1340
2016-07-09T04:40:19.066Z,948
2016-07-09T04:41:19.975Z,1704
2016-07-09T04:42:19.471Z,2712
2016-07-09T04:43:19.972Z,2280
2016-07-09T04:44:19.309Z,2792
2016-07-09T04:45:19.072Z,2616
2016-07-09T04:46:19.061Z,2108
2016-07-09T04:47:19.075Z,2024
2016-07-09T04:48:19.066Z,2076
2016-07-09T04:49:19.061Z,1936
2016-07-09T04:50:20.598Z,1600
2016-07-09T04:51:20.562Z,1812
2016-07-09T04:52:34.314Z,2276
2016-07-09T04:53:19.660Z,2496
2016-07-09T04:54:19.052Z,3348
2016-07-09T04:55:19.057Z,6140
2016-07-09T04:56:19.455Z,7692
2016-07-09T04:57:19.051Z,7172
2016-07-09T04:58:19.050Z,5680
2016-07-09T04:59:19.048Z,5764
2016-07-09T05:00:19.075Z,6904
2016-07-09T05:01:19.045Z,7520
2016-07-09T05:02:19.050Z,7376
2016-07-09T05:03:19.644Z,7692
2016-07-09T05:04:19.042Z,7592
2016-07-09T05:05:19.046Z,7232
2016-07-09T05:06:19.033Z,6788
2016-07-09T05:07:19.040Z,7692
2016-07-09T05:08:19.657Z,8084
2016-07-09T05:09:19.038Z,8980
2016-07-09T05:10:19.045Z,9360
2016-07-09T05:11:19.039Z,11220
2016-07-09T05:12:19.039Z,11692
2016-07-09T05:13:19.036Z,12788
2016-07-09T05:14:19.040Z,17248
2016-07-09T05:15:19.038Z,17408
2016-07-09T05:16:19.025Z,24576
2016-07-09T05:17:19.039Z,16416
2016-07-09T05:18:19.036Z,24192
2016-07-09T05:19:19.030Z,15188
2016-07-09T05:20:19.034Z,14296
2016-07-09T05:21:19.033Z,28288
2016-07-09T05:22:19.038Z,31264
2016-07-09T05:23:19.031Z,21504
2016-07-09T05:24:19.038Z,19232
2016-07-09T05:25:19.043Z,27552
2016-07-09T05:26:19.048Z,17472
2016-07-09T05:27:21.040Z,32992
2016-07-09T05:29:20.203Z,29952
2016-07-09T05:30:19.860Z,32704
2016-07-09T05:31:19.053Z,32128
2016-07-09T05:32:19.388Z,14904
2016-07-09T05:33:19.300Z,41600
2016-07-09T05:34:19.070Z,40512
2016-07-09T05:35:19.097Z,17760
2016-07-09T05:36:20.591Z,27072
2016-07-09T05:37:21.473Z,15176
2016-07-09T05:38:20.141Z,31584
2016-07-09T05:39:20.484Z,39456
2016-07-09T05:40:20.351Z,17824
2016-07-09T05:41:19.113Z,43520
2016-07-09T05:42:19.350Z,23008
2016-07-09T05:43:19.128Z,11188
2016-07-09T05:44:19.740Z,11204
2016-07-09T05:45:19.141Z,10364
2016-07-09T05:46:19.155Z,12924
2016-07-09T05:47:19.161Z,16512
2016-07-09T05:48:19.164Z,19296
2016-07-09T05:49:19.176Z,23840
2016-07-09T05:50:19.175Z,16896
2016-07-09T05:51:19.180Z,19008
2016-07-09T05:52:19.207Z,20224
2016-07-09T05:53:19.208Z,35104
2016-07-09T05:54:19.218Z,24864
2016-07-09T05:55:19.217Z,18848
2016-07-09T05:56:19.223Z,47296
2016-07-09T05:57:19.229Z,17216
2016-07-09T05:58:19.240Z,47712
2016-07-09T05:59:21.143Z,19232
2016-07-09T06:00:19.430Z,18240
2016-07-09T06:01:34.223Z,26304
2016-07-09T06:02:34.390Z,43424
2016-07-09T06:03:19.274Z,32736
2016-07-09T06:04:19.285Z,13952
2016-07-09T06:05:19.291Z,11028
2016-07-09T06:06:19.302Z,13580
2016-07-09T06:07:19.311Z,14964
2016-07-09T06:08:20.873Z,16480
2016-07-09T06:09:20.622Z,14572
2016-07-09T06:10:19.675Z,43968
2016-07-09T06:11:19.441Z,15572
2016-07-09T06:12:34.816Z,13112
2016-07-09T06:13:19.369Z,13292
2016-07-09T06:14:19.366Z,18048
2016-07-09T06:15:19.574Z,17024
2016-07-09T06:16:19.383Z,12336
2016-07-09T06:17:19.398Z,11408
2016-07-09T06:18:19.405Z,13536
2016-07-09T06:19:19.400Z,14724
2016-07-09T06:20:19.413Z,11652
2016-07-09T06:21:19.421Z,11588
2016-07-09T06:22:19.433Z,15004
2016-07-09T06:23:19.429Z,14868
2016-07-09T06:24:19.443Z,15256
2016-07-09T06:25:19.463Z,61952
2016-07-09T06:26:19.454Z,57952
2016-07-09T06:27:19.462Z,57728
2016-07-09T06:28:19.473Z,58912
2016-07-09T06:29:19.485Z,63488
2016-07-09T06:30:19.627Z,67360
2016-07-09T06:31:19.491Z,17664
2016-07-09T06:32:19.493Z,60992
2016-07-09T06:33:19.507Z,58720
2016-07-09T06:34:19.515Z,61888
2016-07-09T06:35:19.530Z,71520
2016-07-09T06:36:19.539Z,72096
2016-07-09T06:37:19.544Z,22592
2016-07-09T06:38:19.554Z,47328
2016-07-09T06:39:19.565Z,33376
2016-07-09T06:40:19.579Z,17248
2016-07-09T06:41:19.585Z,21408
2016-07-09T06:42:19.591Z,17312
2016-07-09T06:43:19.604Z,26240
2016-07-09T06:44:19.622Z,21728
2016-07-09T06:45:21.128Z,23392
2016-07-09T06:46:22.610Z,74848
2016-07-09T06:47:21.656Z,21856
2016-07-09T06:48:20.293Z,20160
2016-07-09T06:49:19.710Z,74528
2016-07-09T06:50:19.683Z,55680
2016-07-09T06:51:19.843Z,25312
2016-07-09T06:52:20.032Z,19360
2016-07-09T06:53:19.711Z,21248
2016-07-09T06:54:19.718Z,12412
2016-07-09T06:55:20.177Z,10776
2016-07-09T06:56:19.729Z,9556
2016-07-09T06:57:20.976Z,10732
2016-07-09T06:58:19.756Z,9300
2016-07-09T06:59:19.763Z,6784
2016-07-09T07:00:19.909Z,6228
2016-07-09T07:01:19.795Z,67520
2016-07-09T07:02:19.794Z,75712
2016-07-09T07:03:19.812Z,76928
2016-07-09T07:04:19.814Z,75360
2016-07-09T07:05:19.818Z,73792
2016-07-09T07:06:19.831Z,71936
2016-07-09T07:07:19.846Z,72992
2016-07-09T07:08:19.852Z,75584
2016-07-09T07:09:19.864Z,78112
2016-07-09T07:10:19.875Z,84096
2016-07-09T07:11:19.887Z,86464
2016-07-09T07:12:19.894Z,88992
2016-07-09T07:13:19.901Z,80576
2016-07-09T07:14:19.919Z,39456
2016-07-09T07:15:19.926Z,32000
2016-07-09T07:16:19.948Z,32864
2016-07-09T07:17:35.167Z,84544
2016-07-09T07:18:20.620Z,46496
2016-07-09T07:19:36.091Z,17408
2016-07-09T07:20:21.144Z,28800
2016-07-09T07:21:21.012Z,14608
2016-07-09T07:22:20.017Z,11400
2016-07-09T07:23:20.034Z,12048
2016-07-09T07:24:20.043Z,18048
2016-07-09T07:25:20.057Z,100064
2016-07-09T07:26:35.884Z,18752
2016-07-09T07:27:20.379Z,36704
2016-07-09T07:28:20.947Z,9512
2016-07-09T07:29:20.198Z,8664
2016-07-09T07:30:20.169Z,9448
2016-07-09T07:31:20.121Z,10816
2016-07-09T07:32:20.234Z,12616
2016-07-09T07:33:20.140Z,14064
2016-07-09T07:34:20.157Z,15000
2016-07-09T07:35:20.166Z,16896
2016-07-09T07:36:20.176Z,17856
2016-07-09T07:37:20.183Z,20000
2016-07-09T07:38:20.196Z,109408
2016-07-09T07:39:20.199Z,105376
2016-07-09T07:40:20.202Z,32352
2016-07-09T07:41:20.224Z,36320
2016-07-09T07:42:20.240Z,31104
2016-07-09T07:43:20.232Z,26816
2016-07-09T07:44:20.243Z,22816
2016-07-09T07:45:20.257Z,32704
2016-07-09T07:46:20.261Z,101152
2016-07-09T07:47:20.275Z,50464
2016-07-09T07:48:20.281Z,44096
2016-07-09T07:49:20.906Z,33984
2016-07-09T07:50:20.312Z,47456
2016-07-09T07:51:20.305Z,72704
2016-07-09T07:52:20.319Z,72832
2016-07-09T07:53:20.334Z,71296
2016-07-09T07:54:20.338Z,121408
2016-07-09T07:55:20.351Z,64512
2016-07-09T07:56:20.350Z,48032
2016-07-09T07:57:20.371Z,39200
2016-07-09T07:58:20.369Z,32256
2016-07-09T07:59:20.389Z,29248
2016-07-09T08:00:20.391Z,21568
2016-07-09T08:01:20.408Z,16736
2016-07-09T08:02:20.420Z,16640
2016-07-09T08:03:20.439Z,20192
2016-07-09T08:04:21.251Z,28928
2016-07-09T08:05:21.159Z,47584
2016-07-09T08:06:23.048Z,44160
2016-07-09T08:07:21.310Z,34144
2016-07-09T08:08:21.381Z,30592
2016-07-09T08:09:20.894Z,29568
2016-07-09T08:10:20.503Z,30880
2016-07-09T08:11:20.504Z,32096
2016-07-09T08:12:20.520Z,26496
2016-07-09T08:13:24.111Z,24000
2016-07-09T08:14:22.855Z,24384
2016-07-09T08:15:21.649Z,24224
2016-07-09T08:16:20.552Z,23648
2016-07-09T08:17:20.874Z,22720
2016-07-09T08:18:20.912Z,20064
2016-07-09T08:19:20.587Z,15404
2016-07-09T08:20:20.589Z,13168
2016-07-09T08:21:20.674Z,13816
2016-07-09T08:22:20.616Z,14220
2016-07-09T08:23:20.609Z,15112
2016-07-09T08:24:20.618Z,17056
2016-07-09T08:25:20.629Z,18624
2016-07-09T08:26:20.630Z,19488
2016-07-09T08:27:20.642Z,21248
2016-07-09T08:28:20.644Z,23424
2016-07-09T08:29:20.671Z,25472
2016-07-09T08:30:20.769Z,27328
2016-07-09T08:31:20.682Z,27744
2016-07-09T08:32:20.678Z,27488
2016-07-09T08:33:20.691Z,21888
2016-07-09T08:34:20.701Z,16768
2016-07-09T08:35:21.359Z,14736
2016-07-09T08:36:21.606Z,15168
2016-07-09T08:37:21.771Z,16352
2016-07-09T08:38:21.227Z,16000
2016-07-09T08:39:20.934Z,14380
2016-07-09T08:40:20.734Z,13084
2016-07-09T08:41:21.235Z,11980
2016-07-09T08:42:20.750Z,10716
2016-07-09T08:43:20.851Z,9996
2016-07-09T08:44:20.772Z,10340
2016-07-09T08:45:20.768Z,11016
2016-07-09T08:46:21.616Z,11612
2016-07-09T08:48:21.037Z,14752
2016-07-09T08:49:20.836Z,17600
2016-07-09T08:50:20.798Z,19936
2016-07-09T08:51:21.411Z,22144
2016-07-09T08:52:20.802Z,24000
2016-07-09T08:53:20.813Z,24480
2016-07-09T08:54:20.805Z,24960
2016-07-09T08:55:20.823Z,25600
2016-07-09T08:56:20.821Z,26176
2016-07-09T08:57:20.830Z,24896
2016-07-09T08:58:20.842Z,22208
2016-07-09T08:59:20.851Z,21472
2016-07-09T09:00:20.846Z,17216
2016-07-09T09:01:20.856Z,17504
2016-07-09T09:02:20.855Z,20544
2016-07-09T09:03:20.871Z,19200
2016-07-09T09:04:20.870Z,21632
2016-07-09T09:05:20.868Z,24416
2016-07-09T09:06:20.871Z,26432
2016-07-09T09:07:20.881Z,27872
2016-07-09T09:08:20.890Z,27424
2016-07-09T09:09:20.896Z,26016
2016-07-09T09:10:20.891Z,23872
2016-07-09T09:11:20.900Z,22880
2016-07-09T09:12:20.907Z,22368
2016-07-09T09:13:20.915Z,21344
2016-07-09T09:14:20.911Z,18976
2016-07-09T09:15:20.925Z,16160
2016-07-09T09:16:20.938Z,15872
2016-07-09T09:17:20.927Z,17536
2016-07-09T09:18:20.931Z,19840
2016-07-09T09:19:20.934Z,20864
2016-07-09T09:20:20.954Z,22144
2016-07-09T09:21:20.946Z,23520
2016-07-09T09:23:22.466Z,23616
2016-07-09T09:24:23.588Z,26880
2016-07-09T09:25:22.802Z,30304
2016-07-09T09:26:21.647Z,32544
2016-07-09T09:27:22.254Z,32192
2016-07-09T09:28:20.982Z,29952
2016-07-09T09:29:20.993Z,30240
2016-07-09T09:30:20.999Z,25088
2016-07-09T09:31:22.507Z,19744
2016-07-09T09:32:24.004Z,18240
2016-07-09T09:33:22.257Z,19040
2016-07-09T09:34:21.969Z,19040
2016-07-09T09:35:21.383Z,22624
2016-07-09T09:36:21.757Z,26880
2016-07-09T09:37:21.676Z,25440
2016-07-09T09:38:21.046Z,21280
2016-07-09T09:39:21.063Z,18400
2016-07-09T09:40:21.056Z,15524
2016-07-09T09:41:21.064Z,12904
2016-07-09T09:42:21.065Z,12864
2016-07-09T09:43:21.079Z,16704
2016-07-09T09:44:21.079Z,22816
2016-07-09T09:45:21.084Z,24608
2016-07-09T09:46:21.090Z,26272
2016-07-09T09:47:21.099Z,26176
2016-07-09T09:48:21.105Z,18976
2016-07-09T09:49:21.115Z,12036
2016-07-09T09:50:21.130Z,7700
2016-07-09T09:51:21.125Z,5852
2016-07-09T09:52:21.138Z,5420
2016-07-09T09:53:21.953Z,4756
2016-07-09T09:54:22.296Z,4136
2016-07-09T09:55:21.545Z,4560
2016-07-09T09:57:21.707Z,5780
2016-07-09T09:58:21.558Z,6764
2016-07-09T09:59:21.174Z,7940
2016-07-09T10:00:21.173Z,8764
2016-07-09T10:01:21.786Z,9572
2016-07-09T10:02:21.181Z,10580
2016-07-09T10:03:21.587Z,11768
2016-07-09T10:04:22.292Z,14648
2016-07-09T10:05:21.314Z,17504
2016-07-09T10:08:22.016Z,24448
2016-07-09T10:09:21.256Z,24512
2016-07-09T10:10:21.206Z,21824
2016-07-09T10:11:21.220Z,22144
2016-07-09T10:12:21.219Z,24352
2016-07-09T10:13:21.232Z,26368
2016-07-09T10:14:21.230Z,26944
2016-07-09T10:15:21.230Z,25760
2016-07-09T10:16:21.246Z,22336
2016-07-09T10:17:21.250Z,17920
2016-07-09T10:18:21.247Z,13616
2016-07-09T10:19:21.256Z,10856
2016-07-09T10:20:21.252Z,9876
2016-07-09T10:21:21.264Z,11740
2016-07-09T10:22:21.269Z,14636
2016-07-09T10:23:21.271Z,18688
2016-07-09T10:24:21.280Z,22944
2016-07-09T10:25:21.278Z,24992
2016-07-09T10:26:21.280Z,26272
2016-07-09T10:27:21.287Z,25312
2016-07-09T10:28:21.296Z,21312
2016-07-09T10:29:21.299Z,19648
2016-07-09T10:30:21.602Z,22080
2016-07-09T10:31:21.308Z,27264
2016-07-09T10:32:21.319Z,28352
2016-07-09T10:33:21.320Z,26016
2016-07-09T10:34:21.324Z,22336
2016-07-09T10:35:21.329Z,18656
2016-07-09T10:36:21.336Z,16160
2016-07-09T10:37:21.336Z,15580
2016-07-09T10:38:21.341Z,14516
2016-07-09T10:39:21.343Z,14820
2016-07-09T10:40:23.665Z,15308
2016-07-09T10:41:24.280Z,14908
2016-07-09T10:42:22.396Z,12876
2016-07-09T10:43:22.473Z,10712
2016-07-09T10:44:21.398Z,9016
2016-07-09T10:45:21.380Z,7808
2016-07-09T10:46:21.382Z,7024
2016-07-09T10:47:21.389Z,6624
2016-07-09T10:48:21.527Z,6884
2016-07-09T10:49:22.906Z,7348
2016-07-09T10:50:24.167Z,8212
2016-07-09T10:51:22.948Z,9596
2016-07-09T10:52:23.774Z,11104
2016-07-09T10:53:21.420Z,12796
2016-07-09T10:54:22.829Z,14764
2016-07-09T10:55:21.426Z,16832
2016-07-09T10:56:21.427Z,18368
2016-07-09T10:57:21.435Z,19552
2016-07-09T10:58:21.437Z,21248
2016-07-09T10:59:21.447Z,22496
2016-07-09T11:00:21.458Z,22816
2016-07-09T11:01:21.451Z,22048
2016-07-09T11:02:21.450Z,22496
2016-07-09T11:03:21.452Z,26528
2016-07-09T11:04:21.467Z,29536
2016-07-09T11:05:21.462Z,28896
2016-07-09T11:06:21.469Z,25856
2016-07-09T11:07:21.473Z,22240
2016-07-09T11:08:21.469Z,19104
2016-07-09T11:09:21.483Z,15512
2016-07-09T11:10:21.486Z,12832
2016-07-09T11:11:21.492Z,10984
2016-07-09T11:12:22.551Z,9092
2016-07-09T11:13:22.860Z,7464
2016-07-09T11:14:21.500Z,6644
2016-07-09T11:15:21.512Z,6532
2016-07-09T11:16:22.264Z,6284
2016-07-09T11:17:21.518Z,6312
2016-07-09T11:18:21.526Z,6732
2016-07-09T11:19:21.531Z,7356
2016-07-09T11:20:21.540Z,8224
2016-07-09T11:22:21.595Z,9524
2016-07-09T11:23:22.451Z,10256
2016-07-09T11:24:21.549Z,10052
2016-07-09T11:25:22.896Z,9456
2016-07-09T11:26:21.558Z,10032
2016-07-09T11:27:21.563Z,12280
2016-07-09T11:28:21.556Z,16320
2016-07-09T11:29:21.564Z,20960
2016-07-09T11:30:21.575Z,24320
2016-07-09T11:31:21.578Z,26304
2016-07-09T11:32:21.572Z,26656
2016-07-09T11:33:21.583Z,26080
2016-07-09T11:34:21.589Z,24768
2016-07-09T11:35:21.592Z,22880
2016-07-09T11:36:21.589Z,19968
2016-07-09T11:37:21.604Z,18272
2016-07-09T11:38:21.602Z,18752
2016-07-09T11:39:21.598Z,20352
2016-07-09T11:40:21.614Z,22560
2016-07-09T11:41:21.610Z,24544
2016-07-09T11:42:21.622Z,26496
2016-07-09T11:43:21.625Z,27488
2016-07-09T11:44:21.632Z,27040
2016-07-09T11:45:21.643Z,25984
2016-07-09T11:46:21.631Z,25536
2016-07-09T11:47:21.649Z,24832
2016-07-09T11:48:21.645Z,24608
2016-07-09T11:49:21.666Z,25184
2016-07-09T11:50:21.657Z,25472
2016-07-09T11:51:21.663Z,24672
2016-07-09T11:52:21.668Z,23712
2016-07-09T11:53:21.668Z,22944
2016-07-09T11:54:21.675Z,21472
2016-07-09T11:55:21.677Z,19840
2016-07-09T11:56:21.686Z,19168
2016-07-09T11:57:21.687Z,19360
2016-07-09T11:58:21.701Z,20416
2016-07-09T11:59:25.216Z,22912
2016-07-09T12:00:24.833Z,25056
2016-07-09T12:01:23.841Z,25472
2016-07-09T12:02:23.721Z,23872
2016-07-09T12:03:23.271Z,22080
2016-07-09T12:04:22.277Z,20704
2016-07-09T12:05:21.748Z,19328
2016-07-09T12:06:21.750Z,19136
2016-07-09T12:07:21.755Z,20672
2016-07-09T12:08:23.286Z,22848
2016-07-09T12:09:23.291Z,25856
2016-07-09T12:10:23.049Z,27808
2016-07-09T12:11:23.283Z,28544
2016-07-09T12:12:23.295Z,28736
2016-07-09T12:13:22.795Z,28896
2016-07-09T12:14:21.797Z,28928
2016-07-09T12:15:21.794Z,27968
2016-07-09T12:16:21.811Z,26112
2016-07-09T12:17:21.817Z,25344
2016-07-09T12:18:21.823Z,26976
2016-07-09T12:19:21.829Z,27648
2016-07-09T12:20:21.832Z,26816
2016-07-09T12:21:21.841Z,26784
2016-07-09T12:22:21.856Z,27200
2016-07-09T12:23:21.861Z,27008
2016-07-09T12:24:21.861Z,26400
2016-07-09T12:25:21.893Z,26240
2016-07-09T12:26:21.876Z,27264
2016-07-09T12:27:21.883Z,28000
2016-07-09T12:28:21.902Z,28864
2016-07-09T12:29:21.900Z,29888
2016-07-09T12:30:22.494Z,30240
2016-07-09T12:31:23.165Z,30048
2016-07-09T12:32:22.221Z,29408
2016-07-09T12:33:22.628Z,28672
2016-07-09T12:34:22.997Z,28448
2016-07-09T12:35:22.086Z,27456
2016-07-09T12:36:22.555Z,25280
2016-07-09T12:37:22.260Z,23776
2016-07-09T12:38:21.960Z,23808
2016-07-09T12:40:22.533Z,21952
2016-07-09T12:41:21.985Z,22688
2016-07-09T12:42:22.751Z,26240
2016-07-09T12:44:22.563Z,26368
2016-07-09T12:45:22.629Z,25952
2016-07-09T12:46:22.034Z,26240
2016-07-09T12:47:22.037Z,25312
2016-07-09T12:48:22.646Z,24480
2016-07-09T12:49:22.056Z,23456
2016-07-09T12:50:22.058Z,23552
2016-07-09T12:51:22.060Z,23840
2016-07-09T12:52:22.073Z,24192
2016-07-09T12:53:22.088Z,24224
2016-07-09T12:54:22.096Z,24960
2016-07-09T12:55:22.095Z,25920
2016-07-09T12:56:22.106Z,26720
2016-07-09T12:57:22.127Z,26656
2016-07-09T12:58:22.132Z,25280
2016-07-09T12:59:22.132Z,24736
2016-07-09T13:00:22.144Z,25248
2016-07-09T13:01:22.149Z,26080
2016-07-09T13:02:22.161Z,27072
2016-07-09T13:03:22.175Z,26880
2016-07-09T13:04:22.174Z,26144
2016-07-09T13:05:22.181Z,25632
2016-07-09T13:06:22.182Z,25792
2016-07-09T13:07:22.197Z,25184
2016-07-09T13:08:22.203Z,23392
2016-07-09T13:09:22.213Z,20992
2016-07-09T13:10:22.213Z,18624
2016-07-09T13:11:22.234Z,17376
2016-07-09T13:12:22.242Z,16864
2016-07-09T13:13:22.246Z,16736
2016-07-09T13:14:22.250Z,16800
2016-07-09T13:15:22.262Z,17632
2016-07-09T13:16:22.266Z,19776
2016-07-09T13:17:24.300Z,22688
2016-07-09T13:18:25.229Z,24032
2016-07-09T13:19:22.291Z,24608
2016-07-09T13:20:23.792Z,24864
2016-07-09T13:21:22.311Z,24960
2016-07-09T13:22:22.312Z,23936
2016-07-09T13:23:22.589Z,23456
2016-07-09T13:24:22.339Z,22976
2016-07-09T13:25:22.340Z,22528
2016-07-09T13:26:23.855Z,22656
2016-07-09T13:27:23.378Z,22368
2016-07-09T13:28:24.157Z,21664
2016-07-09T13:29:23.320Z,20512
2016-07-09T13:30:22.384Z,19008
2016-07-09T13:31:22.382Z,17472
2016-07-09T13:32:22.379Z,16288
2016-07-09T13:33:22.411Z,15504
2016-07-09T13:34:22.401Z,15640
2016-07-09T13:35:22.410Z,16160